sensor_id;sensor_type;location;lat;lon;timestamp;temperature;humidity
49731;DHT22;35622;52.008;5.426;2023-06-19T00:01:25;25.40;41.30
49731;DHT22;35622;52.008;5.426;2023-06-19T00:03:51;25.30;41.60
49731;DHT22;35622;52.008;5.426;2023-06-19T00:06:17;25.20;41.80
49731;DHT22;35622;52.008;5.426;2023-06-19T00:08:43;25.20;42.10
49731;DHT22;35622;52.008;5.426;2023-06-19T00:11:11;25.20;42.30
49731;DHT22;35622;52.008;5.426;2023-06-19T00:13:37;25.10;42.60
49731;DHT22;35622;52.008;5.426;2023-06-19T00:16:02;25.00;42.80
49731;DHT22;35622;52.008;5.426;2023-06-19T00:18:29;25.00;43.00
49731;DHT22;35622;52.008;5.426;2023-06-19T00:20:54;24.90;43.30
49731;DHT22;35622;52.008;5.426;2023-06-19T00:23:22;24.90;43.50
49731;DHT22;35622;52.008;5.426;2023-06-19T00:25:47;24.80;43.70
49731;DHT22;35622;52.008;5.426;2023-06-19T00:28:13;24.70;44.00
49731;DHT22;35622;52.008;5.426;2023-06-19T00:30:40;24.70;44.20
49731;DHT22;35622;52.008;5.426;2023-06-19T00:33:12;24.60;44.40
49731;DHT22;35622;52.008;5.426;2023-06-19T00:35:39;24.50;44.80
49731;DHT22;35622;52.008;5.426;2023-06-19T00:38:08;24.40;45.10
49731;DHT22;35622;52.008;5.426;2023-06-19T00:40:34;24.30;45.60
49731;DHT22;35622;52.008;5.426;2023-06-19T00:43:00;24.20;45.90
49731;DHT22;35622;52.008;5.426;2023-06-19T00:45:26;24.10;46.20
49731;DHT22;35622;52.008;5.426;2023-06-19T00:47:52;24.00;46.50
49731;DHT22;35622;52.008;5.426;2023-06-19T00:50:18;24.00;46.90
49731;DHT22;35622;52.008;5.426;2023-06-19T00:52:45;23.90;47.00
49731;DHT22;35622;52.008;5.426;2023-06-19T00:55:11;23.90;47.30
49731;DHT22;35622;52.008;5.426;2023-06-19T00:57:37;23.80;47.50
49731;DHT22;35622;52.008;5.426;2023-06-19T01:00:05;23.70;47.70
49731;DHT22;35622;52.008;5.426;2023-06-19T01:02:33;23.60;48.20
49731;DHT22;35622;52.008;5.426;2023-06-19T01:04:59;23.50;48.40
49731;DHT22;35622;52.008;5.426;2023-06-19T01:07:43;23.50;48.60
49731;DHT22;35622;52.008;5.426;2023-06-19T01:10:14;23.40;48.90
49731;DHT22;35622;52.008;5.426;2023-06-19T01:12:46;23.40;49.10
49731;DHT22;35622;52.008;5.426;2023-06-19T01:15:16;23.30;49.30
49731;DHT22;35622;52.008;5.426;2023-06-19T01:17:42;23.30;49.40
49731;DHT22;35622;52.008;5.426;2023-06-19T01:20:09;23.20;49.50
49731;DHT22;35622;52.008;5.426;2023-06-19T01:22:37;23.20;49.80
49731;DHT22;35622;52.008;5.426;2023-06-19T01:25:03;23.10;49.90
49731;DHT22;35622;52.008;5.426;2023-06-19T01:27:32;23.10;50.10
49731;DHT22;35622;52.008;5.426;2023-06-19T01:29:59;23.00;50.40
49731;DHT22;35622;52.008;5.426;2023-06-19T01:32:34;22.90;50.50
49731;DHT22;35622;52.008;5.426;2023-06-19T01:35:02;22.80;50.70
49731;DHT22;35622;52.008;5.426;2023-06-19T01:37:37;22.80;51.00
49731;DHT22;35622;52.008;5.426;2023-06-19T01:40:05;22.70;51.10
49731;DHT22;35622;52.008;5.426;2023-06-19T01:42:37;22.70;51.30
49731;DHT22;35622;52.008;5.426;2023-06-19T01:45:04;22.60;51.50
49731;DHT22;35622;52.008;5.426;2023-06-19T01:47:29;22.50;51.70
49731;DHT22;35622;52.008;5.426;2023-06-19T01:49:55;22.50;52.00
49731;DHT22;35622;52.008;5.426;2023-06-19T01:52:21;22.50;52.20
49731;DHT22;35622;52.008;5.426;2023-06-19T01:54:47;22.70;52.60
49731;DHT22;35622;52.008;5.426;2023-06-19T01:57:13;22.70;52.80
49731;DHT22;35622;52.008;5.426;2023-06-19T01:59:38;22.80;52.90
49731;DHT22;35622;52.008;5.426;2023-06-19T02:02:04;22.90;53.10
49731;DHT22;35622;52.008;5.426;2023-06-19T02:04:32;23.10;53.20
49731;DHT22;35622;52.008;5.426;2023-06-19T02:06:57;23.10;53.20
49731;DHT22;35622;52.008;5.426;2023-06-19T02:09:23;23.20;53.10
49731;DHT22;35622;52.008;5.426;2023-06-19T02:11:48;23.30;53.10
49731;DHT22;35622;52.008;5.426;2023-06-19T02:14:14;23.30;53.10
49731;DHT22;35622;52.008;5.426;2023-06-19T02:16:40;23.40;53.10
49731;DHT22;35622;52.008;5.426;2023-06-19T02:19:10;23.50;53.10
49731;DHT22;35622;52.008;5.426;2023-06-19T02:21:38;23.50;52.40
49731;DHT22;35622;52.008;5.426;2023-06-19T02:24:04;23.60;53.10
49731;DHT22;35622;52.008;5.426;2023-06-19T02:26:30;23.60;52.90
49731;DHT22;35622;52.008;5.426;2023-06-19T02:28:56;23.70;52.90
49731;DHT22;35622;52.008;5.426;2023-06-19T02:31:24;24.50;53.30
49731;DHT22;35622;52.008;5.426;2023-06-19T02:33:50;23.70;52.80
49731;DHT22;35622;52.008;5.426;2023-06-19T02:36:16;23.80;52.90
49731;DHT22;35622;52.008;5.426;2023-06-19T02:38:48;23.80;52.90
49731;DHT22;35622;52.008;5.426;2023-06-19T02:41:15;23.80;53.60
49731;DHT22;35622;52.008;5.426;2023-06-19T02:43:44;23.80;52.90
49731;DHT22;35622;52.008;5.426;2023-06-19T02:46:12;23.80;52.80
49731;DHT22;35622;52.008;5.426;2023-06-19T02:48:37;23.80;52.80
49731;DHT22;35622;52.008;5.426;2023-06-19T02:51:03;23.80;52.90
49731;DHT22;35622;52.008;5.426;2023-06-19T02:53:28;23.80;52.90
49731;DHT22;35622;52.008;5.426;2023-06-19T02:55:54;23.80;52.90
49731;DHT22;35622;52.008;5.426;2023-06-19T02:58:19;23.80;53.00
49731;DHT22;35622;52.008;5.426;2023-06-19T03:00:46;23.80;53.10
49731;DHT22;35622;52.008;5.426;2023-06-19T03:03:11;23.80;53.20
49731;DHT22;35622;52.008;5.426;2023-06-19T03:05:37;23.80;53.30
49731;DHT22;35622;52.008;5.426;2023-06-19T03:08:03;23.80;53.40
49731;DHT22;35622;52.008;5.426;2023-06-19T03:10:29;23.80;53.40
49731;DHT22;35622;52.008;5.426;2023-06-19T03:12:55;23.80;53.50
49731;DHT22;35622;52.008;5.426;2023-06-19T03:15:20;23.80;53.50
49731;DHT22;35622;52.008;5.426;2023-06-19T03:17:46;23.80;53.50
49731;DHT22;35622;52.008;5.426;2023-06-19T03:20:12;23.80;53.60
49731;DHT22;35622;52.008;5.426;2023-06-19T03:22:41;23.80;53.60
49731;DHT22;35622;52.008;5.426;2023-06-19T03:25:08;23.80;53.60
49731;DHT22;35622;52.008;5.426;2023-06-19T03:27:34;23.90;53.70
49731;DHT22;35622;52.008;5.426;2023-06-19T03:30:00;23.80;53.80
49731;DHT22;35622;52.008;5.426;2023-06-19T03:32:26;23.90;53.80
49731;DHT22;35622;52.008;5.426;2023-06-19T03:34:51;23.80;53.80
49731;DHT22;35622;52.008;5.426;2023-06-19T03:37:17;23.80;53.90
49731;DHT22;35622;52.008;5.426;2023-06-19T03:39:42;23.90;54.00
49731;DHT22;35622;52.008;5.426;2023-06-19T03:42:08;23.80;54.70
49731;DHT22;35622;52.008;5.426;2023-06-19T03:44:34;23.80;54.10
49731;DHT22;35622;52.008;5.426;2023-06-19T03:47:00;23.80;54.20
49731;DHT22;35622;52.008;5.426;2023-06-19T03:49:25;23.90;54.30
49731;DHT22;35622;52.008;5.426;2023-06-19T03:51:51;23.80;54.40
49731;DHT22;35622;52.008;5.426;2023-06-19T03:54:17;23.80;54.50
49731;DHT22;35622;52.008;5.426;2023-06-19T03:56:43;23.80;54.60
49731;DHT22;35622;52.008;5.426;2023-06-19T03:59:08;23.80;54.70
49731;DHT22;35622;52.008;5.426;2023-06-19T04:01:34;23.80;54.80
49731;DHT22;35622;52.008;5.426;2023-06-19T04:03:59;23.80;54.90
49731;DHT22;35622;52.008;5.426;2023-06-19T04:06:25;23.80;55.10
49731;DHT22;35622;52.008;5.426;2023-06-19T04:08:51;23.70;55.40
49731;DHT22;35622;52.008;5.426;2023-06-19T04:11:16;23.60;55.50
49731;DHT22;35622;52.008;5.426;2023-06-19T04:13:42;23.50;55.60
49731;DHT22;35622;52.008;5.426;2023-06-19T04:16:08;23.50;56.30
49731;DHT22;35622;52.008;5.426;2023-06-19T04:18:33;23.50;56.60
49731;DHT22;35622;52.008;5.426;2023-06-19T04:20:59;23.40;56.90
49731;DHT22;35622;52.008;5.426;2023-06-19T04:23:24;23.40;57.30
49731;DHT22;35622;52.008;5.426;2023-06-19T04:25:50;23.40;57.50
49731;DHT22;35622;52.008;5.426;2023-06-19T04:28:16;23.40;57.80
49731;DHT22;35622;52.008;5.426;2023-06-19T04:30:41;23.40;57.90
49731;DHT22;35622;52.008;5.426;2023-06-19T04:33:08;23.30;58.00
49731;DHT22;35622;52.008;5.426;2023-06-19T04:35:34;23.30;58.20
49731;DHT22;35622;52.008;5.426;2023-06-19T04:38:05;23.30;58.40
49731;DHT22;35622;52.008;5.426;2023-06-19T04:40:31;23.30;58.50
49731;DHT22;35622;52.008;5.426;2023-06-19T04:42:59;23.30;58.80
49731;DHT22;35622;52.008;5.426;2023-06-19T04:45:25;23.20;59.00
49731;DHT22;35622;52.008;5.426;2023-06-19T04:47:50;23.10;59.20
49731;DHT22;35622;52.008;5.426;2023-06-19T04:50:16;23.10;59.50
49731;DHT22;35622;52.008;5.426;2023-06-19T04:52:42;23.10;59.70
49731;DHT22;35622;52.008;5.426;2023-06-19T04:55:08;23.10;59.90
49731;DHT22;35622;52.008;5.426;2023-06-19T04:57:37;23.10;60.00
49731;DHT22;35622;52.008;5.426;2023-06-19T05:00:07;23.10;60.30
49731;DHT22;35622;52.008;5.426;2023-06-19T05:02:33;23.10;60.60
49731;DHT22;35622;52.008;5.426;2023-06-19T05:04:59;23.20;60.80
49731;DHT22;35622;52.008;5.426;2023-06-19T05:07:32;23.30;61.00
49731;DHT22;35622;52.008;5.426;2023-06-19T05:10:01;23.40;60.90
49731;DHT22;35622;52.008;5.426;2023-06-19T05:12:26;23.40;60.80
49731;DHT22;35622;52.008;5.426;2023-06-19T05:14:52;23.50;60.80
49731;DHT22;35622;52.008;5.426;2023-06-19T05:17:17;23.50;60.80
49731;DHT22;35622;52.008;5.426;2023-06-19T05:19:43;23.60;60.70
49731;DHT22;35622;52.008;5.426;2023-06-19T05:22:08;23.60;60.60
49731;DHT22;35622;52.008;5.426;2023-06-19T05:24:34;23.60;60.70
49731;DHT22;35622;52.008;5.426;2023-06-19T05:26:59;23.60;60.70
49731;DHT22;35622;52.008;5.426;2023-06-19T05:29:25;23.60;60.80
49731;DHT22;35622;52.008;5.426;2023-06-19T05:31:51;23.80;60.90
49731;DHT22;35622;52.008;5.426;2023-06-19T05:34:16;23.90;60.80
49731;DHT22;35622;52.008;5.426;2023-06-19T05:36:42;23.90;60.60
49731;DHT22;35622;52.008;5.426;2023-06-19T05:39:10;24.00;60.30
49731;DHT22;35622;52.008;5.426;2023-06-19T05:41:36;24.00;59.90
49731;DHT22;35622;52.008;5.426;2023-06-19T05:44:01;24.10;59.70
49731;DHT22;35622;52.008;5.426;2023-06-19T05:46:27;24.10;59.30
49731;DHT22;35622;52.008;5.426;2023-06-19T05:48:52;24.10;59.10
49731;DHT22;35622;52.008;5.426;2023-06-19T05:51:20;24.10;59.10
49731;DHT22;35622;52.008;5.426;2023-06-19T05:53:45;24.10;58.90
49731;DHT22;35622;52.008;5.426;2023-06-19T05:56:12;24.20;58.70
49731;DHT22;35622;52.008;5.426;2023-06-19T05:58:37;24.30;58.50
49731;DHT22;35622;52.008;5.426;2023-06-19T06:01:04;24.40;58.30
49731;DHT22;35622;52.008;5.426;2023-06-19T06:03:30;24.40;57.80
49731;DHT22;35622;52.008;5.426;2023-06-19T06:05:57;24.40;57.80
49731;DHT22;35622;52.008;5.426;2023-06-19T06:08:28;24.50;57.60
49731;DHT22;35622;52.008;5.426;2023-06-19T06:10:54;24.50;57.20
49731;DHT22;35622;52.008;5.426;2023-06-19T06:13:20;24.60;57.10
49731;DHT22;35622;52.008;5.426;2023-06-19T06:15:45;24.70;56.90
49731;DHT22;35622;52.008;5.426;2023-06-19T06:18:11;24.70;56.50
49731;DHT22;35622;52.008;5.426;2023-06-19T06:20:36;24.60;56.30
49731;DHT22;35622;52.008;5.426;2023-06-19T06:23:02;24.60;56.20
49731;DHT22;35622;52.008;5.426;2023-06-19T06:25:28;24.50;56.10
49731;DHT22;35622;52.008;5.426;2023-06-19T06:27:54;24.50;56.00
49731;DHT22;35622;52.008;5.426;2023-06-19T06:30:19;24.50;56.10
49731;DHT22;35622;52.008;5.426;2023-06-19T06:32:45;24.60;56.10
49731;DHT22;35622;52.008;5.426;2023-06-19T06:37:36;25.00;54.80
49731;DHT22;35622;52.008;5.426;2023-06-19T06:40:02;25.10;55.20
49731;DHT22;35622;52.008;5.426;2023-06-19T06:42:33;25.20;54.80
49731;DHT22;35622;52.008;5.426;2023-06-19T06:44:59;25.50;54.70
49731;DHT22;35622;52.008;5.426;2023-06-19T06:47:25;26.20;54.60
49731;DHT22;35622;52.008;5.426;2023-06-19T06:49:50;27.60;53.50
49731;DHT22;35622;52.008;5.426;2023-06-19T06:52:16;28.60;51.20
49731;DHT22;35622;52.008;5.426;2023-06-19T06:54:41;29.30;48.70
49731;DHT22;35622;52.008;5.426;2023-06-19T06:57:07;29.70;45.90
49731;DHT22;35622;52.008;5.426;2023-06-19T06:59:33;30.60;44.70
49731;DHT22;35622;52.008;5.426;2023-06-19T07:01:59;31.10;42.30
49731;DHT22;35622;52.008;5.426;2023-06-19T07:04:24;31.00;40.80
49731;DHT22;35622;52.008;5.426;2023-06-19T07:06:50;30.90;40.30
49731;DHT22;35622;52.008;5.426;2023-06-19T07:09:17;30.90;39.80
49731;DHT22;35622;52.008;5.426;2023-06-19T07:11:43;30.30;39.10
49731;DHT22;35622;52.008;5.426;2023-06-19T07:14:09;29.90;39.70
49731;DHT22;35622;52.008;5.426;2023-06-19T07:16:34;29.90;40.70
49731;DHT22;35622;52.008;5.426;2023-06-19T07:19:00;29.90;40.60
49731;DHT22;35622;52.008;5.426;2023-06-19T07:21:27;29.50;40.60
49731;DHT22;35622;52.008;5.426;2023-06-19T07:23:53;29.30;41.20
49731;DHT22;35622;52.008;5.426;2023-06-19T07:26:19;29.30;41.30
49731;DHT22;35622;52.008;5.426;2023-06-19T07:28:44;29.20;41.00
49731;DHT22;35622;52.008;5.426;2023-06-19T07:31:10;28.90;41.10
49731;DHT22;35622;52.008;5.426;2023-06-19T07:33:36;28.80;41.40
49731;DHT22;35622;52.008;5.426;2023-06-19T07:36:02;28.70;41.80
49731;DHT22;35622;52.008;5.426;2023-06-19T07:38:28;28.60;41.80
49731;DHT22;35622;52.008;5.426;2023-06-19T07:40:54;28.50;42.00
49731;DHT22;35622;52.008;5.426;2023-06-19T07:43:19;28.60;42.00
49731;DHT22;35622;52.008;5.426;2023-06-19T07:45:48;28.60;41.60
49731;DHT22;35622;52.008;5.426;2023-06-19T07:48:13;28.50;41.60
49731;DHT22;35622;52.008;5.426;2023-06-19T07:50:39;28.60;41.60
49731;DHT22;35622;52.008;5.426;2023-06-19T07:53:04;28.60;41.50
49731;DHT22;35622;52.008;5.426;2023-06-19T07:55:30;28.80;41.70
49731;DHT22;35622;52.008;5.426;2023-06-19T07:57:56;29.00;41.50
49731;DHT22;35622;52.008;5.426;2023-06-19T08:00:23;29.20;41.30
49731;DHT22;35622;52.008;5.426;2023-06-19T08:02:49;29.80;40.80
49731;DHT22;35622;52.008;5.426;2023-06-19T08:05:15;30.10;39.50
49731;DHT22;35622;52.008;5.426;2023-06-19T08:07:41;30.40;38.40
49731;DHT22;35622;52.008;5.426;2023-06-19T08:10:07;31.70;37.60
49731;DHT22;35622;52.008;5.426;2023-06-19T08:12:33;33.10;35.00
49731;DHT22;35622;52.008;5.426;2023-06-19T08:14:58;33.20;33.50
49731;DHT22;35622;52.008;5.426;2023-06-19T08:17:24;33.00;33.20
49731;DHT22;35622;52.008;5.426;2023-06-19T08:19:49;34.30;33.30
49731;DHT22;35622;52.008;5.426;2023-06-19T08:22:15;35.20;31.10
49731;DHT22;35622;52.008;5.426;2023-06-19T08:24:41;35.20;30.00
49731;DHT22;35622;52.008;5.426;2023-06-19T08:27:06;35.20;29.70
49731;DHT22;35622;52.008;5.426;2023-06-19T08:29:32;35.50;29.40
49731;DHT22;35622;52.008;5.426;2023-06-19T08:31:58;35.20;29.00
49731;DHT22;35622;52.008;5.426;2023-06-19T08:34:23;35.20;29.00
49731;DHT22;35622;52.008;5.426;2023-06-19T08:36:49;35.50;29.00
49731;DHT22;35622;52.008;5.426;2023-06-19T08:39:14;35.90;28.50
49731;DHT22;35622;52.008;5.426;2023-06-19T08:41:41;35.50;28.20
49731;DHT22;35622;52.008;5.426;2023-06-19T08:44:09;35.30;28.40
49731;DHT22;35622;52.008;5.426;2023-06-19T08:46:35;35.70;28.50
49731;DHT22;35622;52.008;5.426;2023-06-19T08:49:04;36.20;28.10
49731;DHT22;35622;52.008;5.426;2023-06-19T08:51:31;35.80;27.80
49731;DHT22;35622;52.008;5.426;2023-06-19T08:54:01;35.60;27.60
49731;DHT22;35622;52.008;5.426;2023-06-19T08:56:27;35.10;27.80
49731;DHT22;35622;52.008;5.426;2023-06-19T08:58:53;34.80;28.20
49731;DHT22;35622;52.008;5.426;2023-06-19T09:01:19;34.40;28.60
49731;DHT22;35622;52.008;5.426;2023-06-19T09:03:48;34.90;28.80
49731;DHT22;35622;52.008;5.426;2023-06-19T09:06:18;35.00;28.30
49731;DHT22;35622;52.008;5.426;2023-06-19T09:08:44;35.10;28.50
49731;DHT22;35622;52.008;5.426;2023-06-19T09:11:10;36.60;28.20
49731;DHT22;35622;52.008;5.426;2023-06-19T09:13:36;37.70;27.10
49731;DHT22;35622;52.008;5.426;2023-06-19T09:16:04;38.60;26.10
49731;DHT22;35622;52.008;5.426;2023-06-19T09:18:31;39.20;25.00
49731;DHT22;35622;52.008;5.426;2023-06-19T09:20:57;39.40;24.40
49731;DHT22;35622;52.008;5.426;2023-06-19T09:23:23;38.80;23.90
49731;DHT22;35622;52.008;5.426;2023-06-19T09:25:51;38.30;24.30
49731;DHT22;35622;52.008;5.426;2023-06-19T09:28:25;38.30;24.50
49731;DHT22;35622;52.008;5.426;2023-06-19T09:31:01;38.50;24.50
49731;DHT22;35622;52.008;5.426;2023-06-19T09:33:29;38.80;23.80
49731;DHT22;35622;52.008;5.426;2023-06-19T09:35:57;39.20;24.00
49731;DHT22;35622;52.008;5.426;2023-06-19T09:38:26;40.20;23.60
49731;DHT22;35622;52.008;5.426;2023-06-19T09:40:52;40.80;22.80
49731;DHT22;35622;52.008;5.426;2023-06-19T09:43:21;40.30;22.60
49731;DHT22;35622;52.008;5.426;2023-06-19T09:45:49;40.70;22.50
49731;DHT22;35622;52.008;5.426;2023-06-19T09:48:19;40.00;22.10
49731;DHT22;35622;52.008;5.426;2023-06-19T09:50:48;38.80;23.20
49731;DHT22;35622;52.008;5.426;2023-06-19T09:53:14;38.20;23.80
49731;DHT22;35622;52.008;5.426;2023-06-19T09:55:41;38.70;24.20
49731;DHT22;35622;52.008;5.426;2023-06-19T09:58:06;40.00;23.10
49731;DHT22;35622;52.008;5.426;2023-06-19T10:00:33;40.70;22.80
49731;DHT22;35622;52.008;5.426;2023-06-19T10:03:00;40.60;22.00
49731;DHT22;35622;52.008;5.426;2023-06-19T10:05:36;39.70;22.40
49731;DHT22;35622;52.008;5.426;2023-06-19T10:08:02;40.10;22.70
49731;DHT22;35622;52.008;5.426;2023-06-19T10:10:28;41.00;21.90
49731;DHT22;35622;52.008;5.426;2023-06-19T10:12:55;42.40;21.10
49731;DHT22;35622;52.008;5.426;2023-06-19T10:15:24;42.80;20.30
49731;DHT22;35622;52.008;5.426;2023-06-19T10:18:03;43.70;19.80
49731;DHT22;35622;52.008;5.426;2023-06-19T10:20:34;45.00;19.30
49731;DHT22;35622;52.008;5.426;2023-06-19T10:23:08;46.10;18.20
49731;DHT22;35622;52.008;5.426;2023-06-19T10:25:35;47.50;17.40
49731;DHT22;35622;52.008;5.426;2023-06-19T10:28:03;47.90;16.50
49731;DHT22;35622;52.008;5.426;2023-06-19T10:30:31;48.50;16.10
49731;DHT22;35622;52.008;5.426;2023-06-19T10:33:00;49.10;15.50
49731;DHT22;35622;52.008;5.426;2023-06-19T10:35:28;49.70;15.10
49731;DHT22;35622;52.008;5.426;2023-06-19T10:37:54;49.80;14.90
49731;DHT22;35622;52.008;5.426;2023-06-19T10:40:20;50.20;14.70
49731;DHT22;35622;52.008;5.426;2023-06-19T10:42:46;50.80;14.50
49731;DHT22;35622;52.008;5.426;2023-06-19T10:45:13;51.00;14.20
49731;DHT22;35622;52.008;5.426;2023-06-19T10:47:41;51.20;14.10
49731;DHT22;35622;52.008;5.426;2023-06-19T10:50:11;51.40;13.90
49731;DHT22;35622;52.008;5.426;2023-06-19T10:52:40;51.30;13.90
49731;DHT22;35622;52.008;5.426;2023-06-19T10:55:06;51.40;13.80
49731;DHT22;35622;52.008;5.426;2023-06-19T10:57:32;50.60;13.70
49731;DHT22;35622;52.008;5.426;2023-06-19T10:59:57;50.00;14.00
49731;DHT22;35622;52.008;5.426;2023-06-19T11:02:26;49.20;14.00
49731;DHT22;35622;52.008;5.426;2023-06-19T11:04:55;48.40;14.70
49731;DHT22;35622;52.008;5.426;2023-06-19T11:07:22;48.80;15.00
49731;DHT22;35622;52.008;5.426;2023-06-19T11:09:49;49.30;14.90
49731;DHT22;35622;52.008;5.426;2023-06-19T11:12:21;49.50;14.40
49731;DHT22;35622;52.008;5.426;2023-06-19T11:14:48;49.70;14.50
49731;DHT22;35622;52.008;5.426;2023-06-19T11:17:14;49.90;14.40
49731;DHT22;35622;52.008;5.426;2023-06-19T11:19:40;49.60;14.10
49731;DHT22;35622;52.008;5.426;2023-06-19T11:22:07;48.90;14.20
49731;DHT22;35622;52.008;5.426;2023-06-19T11:24:33;47.50;14.90
49731;DHT22;35622;52.008;5.426;2023-06-19T11:26:59;45.80;15.60
49731;DHT22;35622;52.008;5.426;2023-06-19T11:29:26;44.60;16.40
49731;DHT22;35622;52.008;5.426;2023-06-19T11:32:08;43.60;17.50
49731;DHT22;35622;52.008;5.426;2023-06-19T11:34:35;43.60;18.30
49731;DHT22;35622;52.008;5.426;2023-06-19T11:37:11;44.20;18.00
49731;DHT22;35622;52.008;5.426;2023-06-19T11:39:36;45.10;17.80
49731;DHT22;35622;52.008;5.426;2023-06-19T11:42:02;45.90;17.00
49731;DHT22;35622;52.008;5.426;2023-06-19T11:44:28;46.10;16.50
49731;DHT22;35622;52.008;5.426;2023-06-19T11:46:56;46.40;16.80
49731;DHT22;35622;52.008;5.426;2023-06-19T11:49:23;46.70;16.00
49731;DHT22;35622;52.008;5.426;2023-06-19T11:51:48;47.20;15.60
49731;DHT22;35622;52.008;5.426;2023-06-19T11:54:14;47.60;15.40
49731;DHT22;35622;52.008;5.426;2023-06-19T11:56:40;47.30;15.10
49731;DHT22;35622;52.008;5.426;2023-06-19T11:59:07;47.90;15.40
49731;DHT22;35622;52.008;5.426;2023-06-19T12:01:33;48.40;14.80
49731;DHT22;35622;52.008;5.426;2023-06-19T12:04:00;48.40;14.60
49731;DHT22;35622;52.008;5.426;2023-06-19T12:06:26;48.70;14.40
49731;DHT22;35622;52.008;5.426;2023-06-19T12:08:52;48.90;14.20
49731;DHT22;35622;52.008;5.426;2023-06-19T12:11:18;49.10;14.00
49731;DHT22;35622;52.008;5.426;2023-06-19T12:13:43;49.30;14.00
49731;DHT22;35622;52.008;5.426;2023-06-19T12:16:13;49.20;13.90
49731;DHT22;35622;52.008;5.426;2023-06-19T12:18:38;49.10;13.90
49731;DHT22;35622;52.008;5.426;2023-06-19T12:21:04;48.70;13.90
49731;DHT22;35622;52.008;5.426;2023-06-19T12:23:30;47.90;14.30
49731;DHT22;35622;52.008;5.426;2023-06-19T12:25:55;46.90;14.80
49731;DHT22;35622;52.008;5.426;2023-06-19T12:28:21;45.20;15.60
49731;DHT22;35622;52.008;5.426;2023-06-19T12:30:47;44.00;17.10
49731;DHT22;35622;52.008;5.426;2023-06-19T12:33:20;42.80;17.60
49731;DHT22;35622;52.008;5.426;2023-06-19T12:35:49;41.70;18.70
49731;DHT22;35622;52.008;5.426;2023-06-19T12:38:14;40.90;19.50
49731;DHT22;35622;52.008;5.426;2023-06-19T12:40:41;40.10;20.10
49731;DHT22;35622;52.008;5.426;2023-06-19T12:43:07;39.30;20.80
49731;DHT22;35622;52.008;5.426;2023-06-19T12:45:33;38.80;21.40
49731;DHT22;35622;52.008;5.426;2023-06-19T12:47:59;38.30;21.70
49731;DHT22;35622;52.008;5.426;2023-06-19T12:50:24;37.80;21.90
49731;DHT22;35622;52.008;5.426;2023-06-19T12:52:50;37.40;22.50
49731;DHT22;35622;52.008;5.426;2023-06-19T12:55:16;36.90;23.10
49731;DHT22;35622;52.008;5.426;2023-06-19T12:57:42;36.60;23.40
49731;DHT22;35622;52.008;5.426;2023-06-19T13:00:12;36.30;23.70
49731;DHT22;35622;52.008;5.426;2023-06-19T13:02:38;36.10;24.20
49731;DHT22;35622;52.008;5.426;2023-06-19T13:05:05;35.90;24.50
49731;DHT22;35622;52.008;5.426;2023-06-19T13:07:31;35.80;24.50
49731;DHT22;35622;52.008;5.426;2023-06-19T13:09:57;35.60;24.90
49731;DHT22;35622;52.008;5.426;2023-06-19T13:12:23;35.50;25.20
49731;DHT22;35622;52.008;5.426;2023-06-19T13:14:48;35.50;25.20
49731;DHT22;35622;52.008;5.426;2023-06-19T13:17:14;35.30;25.00
49731;DHT22;35622;52.008;5.426;2023-06-19T13:19:40;35.20;24.90
49731;DHT22;35622;52.008;5.426;2023-06-19T13:22:06;34.90;25.10
49731;DHT22;35622;52.008;5.426;2023-06-19T13:24:31;34.90;25.60
49731;DHT22;35622;52.008;5.426;2023-06-19T13:26:57;34.80;25.60
49731;DHT22;35622;52.008;5.426;2023-06-19T13:29:23;34.60;25.60
49731;DHT22;35622;52.008;5.426;2023-06-19T13:31:48;34.40;25.70
49731;DHT22;35622;52.008;5.426;2023-06-19T13:34:14;34.30;26.20
49731;DHT22;35622;52.008;5.426;2023-06-19T13:36:40;34.30;26.30
49731;DHT22;35622;52.008;5.426;2023-06-19T13:39:06;34.20;26.50
49731;DHT22;35622;52.008;5.426;2023-06-19T13:41:31;34.10;26.50
49731;DHT22;35622;52.008;5.426;2023-06-19T13:43:58;34.00;26.30
49731;DHT22;35622;52.008;5.426;2023-06-19T13:46:24;34.00;26.40
49731;DHT22;35622;52.008;5.426;2023-06-19T13:48:51;33.90;26.10
49731;DHT22;35622;52.008;5.426;2023-06-19T13:51:20;33.80;26.20
49731;DHT22;35622;52.008;5.426;2023-06-19T13:53:47;33.70;26.10
49731;DHT22;35622;52.008;5.426;2023-06-19T13:56:13;33.80;26.40
49731;DHT22;35622;52.008;5.426;2023-06-19T13:58:39;33.80;26.70
49731;DHT22;35622;52.008;5.426;2023-06-19T14:01:05;33.60;26.70
49731;DHT22;35622;52.008;5.426;2023-06-19T14:03:31;33.80;26.90
49731;DHT22;35622;52.008;5.426;2023-06-19T14:05:57;33.40;26.30
49731;DHT22;35622;52.008;5.426;2023-06-19T14:08:22;33.40;26.80
49731;DHT22;35622;52.008;5.426;2023-06-19T14:10:49;33.30;26.90
49731;DHT22;35622;52.008;5.426;2023-06-19T14:13:15;33.20;27.00
49731;DHT22;35622;52.008;5.426;2023-06-19T14:15:41;33.20;27.10
49731;DHT22;35622;52.008;5.426;2023-06-19T14:18:06;33.20;27.40
49731;DHT22;35622;52.008;5.426;2023-06-19T14:20:32;33.10;27.50
49731;DHT22;35622;52.008;5.426;2023-06-19T14:22:57;33.20;27.70
49731;DHT22;35622;52.008;5.426;2023-06-19T14:25:23;33.20;27.60
49731;DHT22;35622;52.008;5.426;2023-06-19T14:27:48;33.20;27.40
49731;DHT22;35622;52.008;5.426;2023-06-19T14:30:14;33.30;27.50
49731;DHT22;35622;52.008;5.426;2023-06-19T14:32:40;33.30;27.10
49731;DHT22;35622;52.008;5.426;2023-06-19T14:35:06;33.20;27.00
49731;DHT22;35622;52.008;5.426;2023-06-19T14:37:32;33.10;27.30
49731;DHT22;35622;52.008;5.426;2023-06-19T14:39:57;33.00;27.30
49731;DHT22;35622;52.008;5.426;2023-06-19T14:42:23;33.00;27.40
49731;DHT22;35622;52.008;5.426;2023-06-19T14:44:49;33.00;27.60
49731;DHT22;35622;52.008;5.426;2023-06-19T14:47:14;32.90;27.40
49731;DHT22;35622;52.008;5.426;2023-06-19T14:49:40;32.80;27.40
49731;DHT22;35622;52.008;5.426;2023-06-19T14:52:06;32.80;27.60
49731;DHT22;35622;52.008;5.426;2023-06-19T14:54:32;32.80;27.60
49731;DHT22;35622;52.008;5.426;2023-06-19T14:56:57;32.70;27.60
49731;DHT22;35622;52.008;5.426;2023-06-19T14:59:23;32.60;27.80
49731;DHT22;35622;52.008;5.426;2023-06-19T15:01:48;32.60;28.20
49731;DHT22;35622;52.008;5.426;2023-06-19T15:04:14;32.70;28.20
49731;DHT22;35622;52.008;5.426;2023-06-19T15:06:40;32.60;27.90
49731;DHT22;35622;52.008;5.426;2023-06-19T15:09:05;32.50;27.70
49731;DHT22;35622;52.008;5.426;2023-06-19T15:11:31;32.50;27.80
49731;DHT22;35622;52.008;5.426;2023-06-19T15:13:57;32.40;27.80
49731;DHT22;35622;52.008;5.426;2023-06-19T15:16:22;32.30;28.30
49731;DHT22;35622;52.008;5.426;2023-06-19T15:18:51;32.20;28.50
49731;DHT22;35622;52.008;5.426;2023-06-19T15:21:17;32.20;28.50
49731;DHT22;35622;52.008;5.426;2023-06-19T15:23:43;32.10;28.30
49731;DHT22;35622;52.008;5.426;2023-06-19T15:26:08;32.10;28.20
49731;DHT22;35622;52.008;5.426;2023-06-19T15:28:34;32.10;28.40